sensor_id;sensor_type;location;lat;lon;timestamp;temperature;humidity
24158;DHT22;12316;50.904;4.200;2023-11-21T00:01:56;10.80;99.90
24158;DHT22;12316;50.904;4.200;2023-11-21T00:04:22;10.60;99.90
24158;DHT22;12316;50.904;4.200;2023-11-21T00:06:48;10.50;99.90
24158;DHT22;12316;50.904;4.200;2023-11-21T00:09:14;10.40;99.90
24158;DHT22;12316;50.904;4.200;2023-11-21T00:11:45;10.20;99.90
24158;DHT22;12316;50.904;4.200;2023-11-21T00:14:13;10.10;99.90
24158;DHT22;12316;50.904;4.200;2023-11-21T00:16:41;10.10;99.90
24158;DHT22;12316;50.904;4.200;2023-11-21T00:19:06;10.00;99.90
24158;DHT22;12316;50.904;4.200;2023-11-21T00:21:32;10.10;99.90
24158;DHT22;12316;50.904;4.200;2023-11-21T00:23:58;10.10;99.90
24158;DHT22;12316;50.904;4.200;2023-11-21T00:26:23;10.10;99.90
24158;DHT22;12316;50.904;4.200;2023-11-21T00:28:50;10.10;99.90
24158;DHT22;12316;50.904;4.200;2023-11-21T00:31:16;10.00;99.90
24158;DHT22;12316;50.904;4.200;2023-11-21T00:33:41;10.00;99.90
24158;DHT22;12316;50.904;4.200;2023-11-21T00:36:07;10.00;99.90
24158;DHT22;12316;50.904;4.200;2023-11-21T00:38:35;10.10;99.90
24158;DHT22;12316;50.904;4.200;2023-11-21T00:41:01;10.10;99.90
24158;DHT22;12316;50.904;4.200;2023-11-21T00:43:28;10.00;99.90
24158;DHT22;12316;50.904;4.200;2023-11-21T00:45:53;10.00;99.90
24158;DHT22;12316;50.904;4.200;2023-11-21T00:48:19;10.00;99.90
24158;DHT22;12316;50.904;4.200;2023-11-21T00:50:45;10.20;99.90
24158;DHT22;12316;50.904;4.200;2023-11-21T00:53:10;10.10;99.90
24158;DHT22;12316;50.904;4.200;2023-11-21T00:55:37;10.10;99.90
24158;DHT22;12316;50.904;4.200;2023-11-21T00:58:05;10.10;99.90
24158;DHT22;12316;50.904;4.200;2023-11-21T01:00:33;10.20;99.90
24158;DHT22;12316;50.904;4.200;2023-11-21T01:02:59;10.20;99.90
24158;DHT22;12316;50.904;4.200;2023-11-21T01:05:25;10.20;99.90
24158;DHT22;12316;50.904;4.200;2023-11-21T01:07:52;10.30;99.90
24158;DHT22;12316;50.904;4.200;2023-11-21T01:10:18;10.30;99.90
24158;DHT22;12316;50.904;4.200;2023-11-21T01:12:43;10.30;99.90
24158;DHT22;12316;50.904;4.200;2023-11-21T01:15:09;10.30;99.90
24158;DHT22;12316;50.904;4.200;2023-11-21T01:17:37;10.40;99.90
24158;DHT22;12316;50.904;4.200;2023-11-21T01:20:04;10.40;99.90
24158;DHT22;12316;50.904;4.200;2023-11-21T01:22:36;10.40;99.90
24158;DHT22;12316;50.904;4.200;2023-11-21T01:25:01;10.50;99.90
24158;DHT22;12316;50.904;4.200;2023-11-21T01:27:29;10.50;99.90
24158;DHT22;12316;50.904;4.200;2023-11-21T01:29:55;10.50;99.90
24158;DHT22;12316;50.904;4.200;2023-11-21T01:32:21;10.60;99.90
24158;DHT22;12316;50.904;4.200;2023-11-21T01:34:47;10.60;99.90
24158;DHT22;12316;50.904;4.200;2023-11-21T01:37:13;10.80;99.90
24158;DHT22;12316;50.904;4.200;2023-11-21T01:39:39;10.70;99.90
24158;DHT22;12316;50.904;4.200;2023-11-21T01:42:05;10.70;99.90
24158;DHT22;12316;50.904;4.200;2023-11-21T01:44:31;10.60;99.90
24158;DHT22;12316;50.904;4.200;2023-11-21T01:46:57;10.50;99.90
24158;DHT22;12316;50.904;4.200;2023-11-21T01:49:23;10.60;99.90
24158;DHT22;12316;50.904;4.200;2023-11-21T01:51:49;10.80;99.90
24158;DHT22;12316;50.904;4.200;2023-11-21T01:54:17;10.80;99.90
24158;DHT22;12316;50.904;4.200;2023-11-21T01:56:46;10.80;99.90
24158;DHT22;12316;50.904;4.200;2023-11-21T01:59:18;10.90;99.90
24158;DHT22;12316;50.904;4.200;2023-11-21T02:01:44;10.90;99.90
24158;DHT22;12316;50.904;4.200;2023-11-21T02:04:09;11.00;99.90
24158;DHT22;12316;50.904;4.200;2023-11-21T02:06:35;11.00;99.90
24158;DHT22;12316;50.904;4.200;2023-11-21T02:09:01;11.00;99.90
24158;DHT22;12316;50.904;4.200;2023-11-21T02:11:26;11.00;99.90
24158;DHT22;12316;50.904;4.200;2023-11-21T02:13:53;11.00;99.90
24158;DHT22;12316;50.904;4.200;2023-11-21T02:16:19;11.00;99.90
24158;DHT22;12316;50.904;4.200;2023-11-21T02:18:47;11.10;99.90
24158;DHT22;12316;50.904;4.200;2023-11-21T02:21:14;11.10;99.90
24158;DHT22;12316;50.904;4.200;2023-11-21T02:23:39;11.10;99.90
24158;DHT22;12316;50.904;4.200;2023-11-21T02:26:10;11.10;99.90
24158;DHT22;12316;50.904;4.200;2023-11-21T02:28:36;11.10;99.90
24158;DHT22;12316;50.904;4.200;2023-11-21T02:31:04;11.10;99.90
24158;DHT22;12316;50.904;4.200;2023-11-21T02:33:30;11.10;99.90
24158;DHT22;12316;50.904;4.200;2023-11-21T02:35:59;11.10;99.90
24158;DHT22;12316;50.904;4.200;2023-11-21T02:38:25;11.10;99.90
24158;DHT22;12316;50.904;4.200;2023-11-21T02:40:51;11.20;99.90
24158;DHT22;12316;50.904;4.200;2023-11-21T02:43:16;11.20;99.90
24158;DHT22;12316;50.904;4.200;2023-11-21T02:45:42;11.20;99.90
24158;DHT22;12316;50.904;4.200;2023-11-21T02:48:07;11.20;99.90
24158;DHT22;12316;50.904;4.200;2023-11-21T02:50:33;11.20;99.90
24158;DHT22;12316;50.904;4.200;2023-11-21T02:53:01;11.30;99.90
24158;DHT22;12316;50.904;4.200;2023-11-21T02:55:27;11.30;99.90
24158;DHT22;12316;50.904;4.200;2023-11-21T02:57:53;11.30;99.90
24158;DHT22;12316;50.904;4.200;2023-11-21T03:00:19;11.20;99.90
24158;DHT22;12316;50.904;4.200;2023-11-21T03:02:45;11.20;99.90
24158;DHT22;12316;50.904;4.200;2023-11-21T03:05:13;11.20;99.90
24158;DHT22;12316;50.904;4.200;2023-11-21T03:07:39;11.20;99.90
24158;DHT22;12316;50.904;4.200;2023-11-21T03:10:06;11.30;99.90
24158;DHT22;12316;50.904;4.200;2023-11-21T03:12:34;11.20;99.90
24158;DHT22;12316;50.904;4.200;2023-11-21T03:15:00;11.30;99.90
24158;DHT22;12316;50.904;4.200;2023-11-21T03:17:28;11.30;99.90
24158;DHT22;12316;50.904;4.200;2023-11-21T03:19:54;11.30;99.90
24158;DHT22;12316;50.904;4.200;2023-11-21T03:22:20;11.20;99.90
24158;DHT22;12316;50.904;4.200;2023-11-21T03:24:46;11.30;99.90
24158;DHT22;12316;50.904;4.200;2023-11-21T03:27:11;11.10;99.90
24158;DHT22;12316;50.904;4.200;2023-11-21T03:29:37;11.10;99.90
24158;DHT22;12316;50.904;4.200;2023-11-21T03:32:03;10.90;99.90
24158;DHT22;12316;50.904;4.200;2023-11-21T03:34:29;11.00;99.90
24158;DHT22;12316;50.904;4.200;2023-11-21T03:36:55;11.00;99.90
24158;DHT22;12316;50.904;4.200;2023-11-21T03:39:21;11.10;99.90
24158;DHT22;12316;50.904;4.200;2023-11-21T03:41:47;11.10;99.90
24158;DHT22;12316;50.904;4.200;2023-11-21T03:44:13;11.10;99.90
24158;DHT22;12316;50.904;4.200;2023-11-21T03:46:39;11.10;99.90
24158;DHT22;12316;50.904;4.200;2023-11-21T03:49:05;11.10;99.90
24158;DHT22;12316;50.904;4.200;2023-11-21T03:51:30;11.00;99.90
24158;DHT22;12316;50.904;4.200;2023-11-21T03:53:56;11.20;99.90
24158;DHT22;12316;50.904;4.200;2023-11-21T03:56:22;11.10;99.90
24158;DHT22;12316;50.904;4.200;2023-11-21T03:58:48;11.20;99.90
24158;DHT22;12316;50.904;4.200;2023-11-21T04:01:21;11.20;99.90
24158;DHT22;12316;50.904;4.200;2023-11-21T04:03:48;11.20;99.90
24158;DHT22;12316;50.904;4.200;2023-11-21T04:06:14;11.20;99.90
24158;DHT22;12316;50.904;4.200;2023-11-21T04:08:39;11.30;99.90
24158;DHT22;12316;50.904;4.200;2023-11-21T04:11:05;11.20;99.90
24158;DHT22;12316;50.904;4.200;2023-11-21T04:13:31;11.20;99.90
24158;DHT22;12316;50.904;4.200;2023-11-21T04:15:56;11.10;99.90
24158;DHT22;12316;50.904;4.200;2023-11-21T04:18:22;11.10;99.90
24158;DHT22;12316;50.904;4.200;2023-11-21T04:20:50;11.10;99.90
24158;DHT22;12316;50.904;4.200;2023-11-21T04:23:16;11.10;99.90
24158;DHT22;12316;50.904;4.200;2023-11-21T04:25:42;11.20;99.90
24158;DHT22;12316;50.904;4.200;2023-11-21T04:28:08;11.20;99.90
24158;DHT22;12316;50.904;4.200;2023-11-21T04:30:33;11.30;99.90
24158;DHT22;12316;50.904;4.200;2023-11-21T04:32:59;11.30;99.90
24158;DHT22;12316;50.904;4.200;2023-11-21T04:35:25;11.40;99.90
24158;DHT22;12316;50.904;4.200;2023-11-21T04:37:50;11.30;99.90
24158;DHT22;12316;50.904;4.200;2023-11-21T04:40:16;11.40;99.90
24158;DHT22;12316;50.904;4.200;2023-11-21T04:42:43;11.40;99.90
24158;DHT22;12316;50.904;4.200;2023-11-21T04:45:09;11.40;99.90
24158;DHT22;12316;50.904;4.200;2023-11-21T04:47:37;11.50;99.90
24158;DHT22;12316;50.904;4.200;2023-11-21T04:50:04;11.50;99.90
24158;DHT22;12316;50.904;4.200;2023-11-21T04:52:31;11.50;99.90
24158;DHT22;12316;50.904;4.200;2023-11-21T04:54:58;11.50;99.90
24158;DHT22;12316;50.904;4.200;2023-11-21T04:57:24;11.50;99.90
24158;DHT22;12316;50.904;4.200;2023-11-21T04:59:49;11.50;99.90
24158;DHT22;12316;50.904;4.200;2023-11-21T05:02:16;11.60;99.90
24158;DHT22;12316;50.904;4.200;2023-11-21T05:04:41;11.70;99.90
24158;DHT22;12316;50.904;4.200;2023-11-21T05:07:08;11.60;99.90
24158;DHT22;12316;50.904;4.200;2023-11-21T05:09:34;11.70;99.90
24158;DHT22;12316;50.904;4.200;2023-11-21T05:12:01;11.70;99.90
24158;DHT22;12316;50.904;4.200;2023-11-21T05:14:27;11.70;99.90
24158;DHT22;12316;50.904;4.200;2023-11-21T05:16:53;11.70;99.90
24158;DHT22;12316;50.904;4.200;2023-11-21T05:19:18;11.70;99.90
24158;DHT22;12316;50.904;4.200;2023-11-21T05:21:44;11.70;99.90
24158;DHT22;12316;50.904;4.200;2023-11-21T05:24:09;11.70;99.90
24158;DHT22;12316;50.904;4.200;2023-11-21T05:26:35;11.70;99.90
24158;DHT22;12316;50.904;4.200;2023-11-21T05:29:00;11.70;99.90
24158;DHT22;12316;50.904;4.200;2023-11-21T05:31:26;11.70;99.90
24158;DHT22;12316;50.904;4.200;2023-11-21T05:33:52;11.60;99.90
24158;DHT22;12316;50.904;4.200;2023-11-21T05:36:19;11.60;99.90
24158;DHT22;12316;50.904;4.200;2023-11-21T05:38:45;11.60;99.90
24158;DHT22;12316;50.904;4.200;2023-11-21T05:41:11;11.60;99.90
24158;DHT22;12316;50.904;4.200;2023-11-21T05:43:38;11.60;99.90
24158;DHT22;12316;50.904;4.200;2023-11-21T05:46:04;11.70;99.90
24158;DHT22;12316;50.904;4.200;2023-11-21T05:48:32;11.70;99.90
24158;DHT22;12316;50.904;4.200;2023-11-21T05:50:58;11.70;99.90
24158;DHT22;12316;50.904;4.200;2023-11-21T05:53:24;11.70;99.90
24158;DHT22;12316;50.904;4.200;2023-11-21T05:55:51;11.70;99.90
24158;DHT22;12316;50.904;4.200;2023-11-21T05:58:16;11.70;99.90
24158;DHT22;12316;50.904;4.200;2023-11-21T06:00:42;11.70;99.90
24158;DHT22;12316;50.904;4.200;2023-11-21T06:03:08;11.80;99.90
24158;DHT22;12316;50.904;4.200;2023-11-21T06:05:33;11.80;99.90
24158;DHT22;12316;50.904;4.200;2023-11-21T06:07:59;11.70;99.90
24158;DHT22;12316;50.904;4.200;2023-11-21T06:10:26;11.70;99.90
24158;DHT22;12316;50.904;4.200;2023-11-21T06:12:52;11.70;99.90
24158;DHT22;12316;50.904;4.200;2023-11-21T06:43:56;12.20;99.90
24158;DHT22;12316;50.904;4.200;2023-11-21T06:46:24;12.40;99.90
24158;DHT22;12316;50.904;4.200;2023-11-21T06:48:50;12.30;99.90
24158;DHT22;12316;50.904;4.200;2023-11-21T06:51:16;12.20;99.90
24158;DHT22;12316;50.904;4.200;2023-11-21T06:53:41;12.20;99.90
24158;DHT22;12316;50.904;4.200;2023-11-21T06:56:17;12.20;99.90
24158;DHT22;12316;50.904;4.200;2023-11-21T06:58:45;12.10;99.90
24158;DHT22;12316;50.904;4.200;2023-11-21T07:01:11;12.10;99.90
24158;DHT22;12316;50.904;4.200;2023-11-21T07:03:37;12.10;99.90
24158;DHT22;12316;50.904;4.200;2023-11-21T07:06:03;12.20;99.90
24158;DHT22;12316;50.904;4.200;2023-11-21T07:08:29;12.10;99.90
24158;DHT22;12316;50.904;4.200;2023-11-21T07:10:54;12.20;99.90
24158;DHT22;12316;50.904;4.200;2023-11-21T07:13:20;12.10;99.90
24158;DHT22;12316;50.904;4.200;2023-11-21T07:15:47;12.10;99.90
24158;DHT22;12316;50.904;4.200;2023-11-21T07:18:13;12.10;99.90
24158;DHT22;12316;50.904;4.200;2023-11-21T07:20:39;12.20;99.90
24158;DHT22;12316;50.904;4.200;2023-11-21T07:23:04;12.20;99.90
24158;DHT22;12316;50.904;4.200;2023-11-21T07:25:31;12.10;99.90
24158;DHT22;12316;50.904;4.200;2023-11-21T07:27:57;12.10;99.90
24158;DHT22;12316;50.904;4.200;2023-11-21T07:30:23;12.20;99.90
24158;DHT22;12316;50.904;4.200;2023-11-21T07:32:48;12.20;99.90
24158;DHT22;12316;50.904;4.200;2023-11-21T07:35:15;12.20;99.90
24158;DHT22;12316;50.904;4.200;2023-11-21T07:37:41;12.20;99.90
24158;DHT22;12316;50.904;4.200;2023-11-21T07:40:07;12.10;99.90
24158;DHT22;12316;50.904;4.200;2023-11-21T07:42:34;12.20;99.90
24158;DHT22;12316;50.904;4.200;2023-11-21T07:45:00;12.20;99.90
24158;DHT22;12316;50.904;4.200;2023-11-21T07:47:25;12.30;99.90
24158;DHT22;12316;50.904;4.200;2023-11-21T07:49:53;12.30;99.90
24158;DHT22;12316;50.904;4.200;2023-11-21T07:52:21;12.30;99.90
24158;DHT22;12316;50.904;4.200;2023-11-21T07:54:47;12.30;99.90
24158;DHT22;12316;50.904;4.200;2023-11-21T07:57:13;12.30;99.90
24158;DHT22;12316;50.904;4.200;2023-11-21T07:59:39;12.30;99.90
24158;DHT22;12316;50.904;4.200;2023-11-21T08:02:06;12.30;99.90
24158;DHT22;12316;50.904;4.200;2023-11-21T08:04:32;12.30;99.90
24158;DHT22;12316;50.904;4.200;2023-11-21T08:06:58;12.30;99.90
24158;DHT22;12316;50.904;4.200;2023-11-21T08:09:23;12.30;99.90
24158;DHT22;12316;50.904;4.200;2023-11-21T08:11:49;12.30;99.90
24158;DHT22;12316;50.904;4.200;2023-11-21T08:14:16;12.30;99.90
24158;DHT22;12316;50.904;4.200;2023-11-21T08:16:42;12.40;99.90
24158;DHT22;12316;50.904;4.200;2023-11-21T08:19:07;12.30;99.90
24158;DHT22;12316;50.904;4.200;2023-11-21T08:21:34;12.40;99.90
24158;DHT22;12316;50.904;4.200;2023-11-21T08:24:03;12.50;99.90
24158;DHT22;12316;50.904;4.200;2023-11-21T08:26:29;12.40;99.90
24158;DHT22;12316;50.904;4.200;2023-11-21T08:28:55;12.40;99.90
24158;DHT22;12316;50.904;4.200;2023-11-21T08:31:25;12.50;99.90
24158;DHT22;12316;50.904;4.200;2023-11-21T08:33:51;12.60;99.90
24158;DHT22;12316;50.904;4.200;2023-11-21T08:36:21;12.60;99.90
24158;DHT22;12316;50.904;4.200;2023-11-21T08:38:49;12.60;99.90
24158;DHT22;12316;50.904;4.200;2023-11-21T08:41:17;12.60;99.90
24158;DHT22;12316;50.904;4.200;2023-11-21T08:43:43;12.70;99.90
24158;DHT22;12316;50.904;4.200;2023-11-21T08:46:10;12.70;99.90
24158;DHT22;12316;50.904;4.200;2023-11-21T08:48:36;12.70;99.90
24158;DHT22;12316;50.904;4.200;2023-11-21T08:51:03;12.70;99.90
24158;DHT22;12316;50.904;4.200;2023-11-21T08:53:29;12.70;99.90
24158;DHT22;12316;50.904;4.200;2023-11-21T08:55:56;12.80;99.90
24158;DHT22;12316;50.904;4.200;2023-11-21T08:58:22;12.90;99.90
24158;DHT22;12316;50.904;4.200;2023-11-21T09:00:47;12.90;99.90
24158;DHT22;12316;50.904;4.200;2023-11-21T09:03:13;12.90;99.90
24158;DHT22;12316;50.904;4.200;2023-11-21T09:05:39;13.00;99.90
24158;DHT22;12316;50.904;4.200;2023-11-21T09:08:05;13.00;99.90
24158;DHT22;12316;50.904;4.200;2023-11-21T09:10:33;12.90;99.90
24158;DHT22;12316;50.904;4.200;2023-11-21T09:13:01;12.70;99.90
24158;DHT22;12316;50.904;4.200;2023-11-21T09:15:27;12.80;99.90
24158;DHT22;12316;50.904;4.200;2023-11-21T09:17:53;12.60;99.90
24158;DHT22;12316;50.904;4.200;2023-11-21T09:20:18;12.60;99.90
24158;DHT22;12316;50.904;4.200;2023-11-21T09:22:48;12.80;99.90
24158;DHT22;12316;50.904;4.200;2023-11-21T09:25:14;12.80;99.90
24158;DHT22;12316;50.904;4.200;2023-11-21T09:27:40;12.70;99.90
24158;DHT22;12316;50.904;4.200;2023-11-21T09:30:06;12.70;99.90
24158;DHT22;12316;50.904;4.200;2023-11-21T09:32:35;12.50;99.90
24158;DHT22;12316;50.904;4.200;2023-11-21T09:35:03;12.50;99.90
24158;DHT22;12316;50.904;4.200;2023-11-21T09:37:29;12.50;99.90
24158;DHT22;12316;50.904;4.200;2023-11-21T09:39:55;12.50;99.90
24158;DHT22;12316;50.904;4.200;2023-11-21T09:42:25;12.40;99.90
24158;DHT22;12316;50.904;4.200;2023-11-21T09:45:21;12.40;99.90
24158;DHT22;12316;50.904;4.200;2023-11-21T09:47:49;12.20;99.90
24158;DHT22;12316;50.904;4.200;2023-11-21T09:50:17;12.20;99.90
24158;DHT22;12316;50.904;4.200;2023-11-21T09:53:17;12.20;99.90
24158;DHT22;12316;50.904;4.200;2023-11-21T09:55:44;12.10;99.90
24158;DHT22;12316;50.904;4.200;2023-11-21T09:58:10;12.00;99.90
24158;DHT22;12316;50.904;4.200;2023-11-21T10:00:43;11.90;99.90
24158;DHT22;12316;50.904;4.200;2023-11-21T10:03:10;11.90;99.90
24158;DHT22;12316;50.904;4.200;2023-11-21T10:05:37;12.00;99.90
24158;DHT22;12316;50.904;4.200;2023-11-21T10:08:09;12.00;99.90
24158;DHT22;12316;50.904;4.200;2023-11-21T10:10:45;12.30;99.90
24158;DHT22;12316;50.904;4.200;2023-11-21T10:13:12;12.60;99.90
24158;DHT22;12316;50.904;4.200;2023-11-21T10:15:38;12.80;99.90
24158;DHT22;12316;50.904;4.200;2023-11-21T10:18:07;13.00;99.90
24158;DHT22;12316;50.904;4.200;2023-11-21T10:20:34;13.00;99.90
24158;DHT22;12316;50.904;4.200;2023-11-21T10:23:01;12.90;99.90
24158;DHT22;12316;50.904;4.200;2023-11-21T10:25:28;13.00;99.90
24158;DHT22;12316;50.904;4.200;2023-11-21T10:28:02;12.90;99.90
24158;DHT22;12316;50.904;4.200;2023-11-21T10:30:38;12.90;99.90
24158;DHT22;12316;50.904;4.200;2023-11-21T10:33:04;13.00;99.90
24158;DHT22;12316;50.904;4.200;2023-11-21T10:35:49;13.10;99.90
24158;DHT22;12316;50.904;4.200;2023-11-21T10:38:16;12.90;99.90
24158;DHT22;12316;50.904;4.200;2023-11-21T10:40:42;13.00;99.90
24158;DHT22;12316;50.904;4.200;2023-11-21T10:43:10;13.00;99.90
24158;DHT22;12316;50.904;4.200;2023-11-21T10:45:39;13.10;99.90
24158;DHT22;12316;50.904;4.200;2023-11-21T10:48:10;13.20;99.90
24158;DHT22;12316;50.904;4.200;2023-11-21T10:50:43;13.20;99.90
24158;DHT22;12316;50.904;4.200;2023-11-21T10:53:09;13.40;99.90
24158;DHT22;12316;50.904;4.200;2023-11-21T10:55:37;13.30;99.90
24158;DHT22;12316;50.904;4.200;2023-11-21T10:58:03;13.30;99.90
24158;DHT22;12316;50.904;4.200;2023-11-21T11:00:32;13.30;99.90
24158;DHT22;12316;50.904;4.200;2023-11-21T11:02:58;13.20;99.90
24158;DHT22;12316;50.904;4.200;2023-11-21T11:05:25;13.20;99.90
24158;DHT22;12316;50.904;4.200;2023-11-21T11:08:12;13.30;99.90
24158;DHT22;12316;50.904;4.200;2023-11-21T11:10:37;13.10;99.90
24158;DHT22;12316;50.904;4.200;2023-11-21T11:13:04;13.00;99.90
24158;DHT22;12316;50.904;4.200;2023-11-21T11:15:32;13.00;99.90
24158;DHT22;12316;50.904;4.200;2023-11-21T11:17:59;13.00;99.90
24158;DHT22;12316;50.904;4.200;2023-11-21T11:20:30;12.90;99.90
24158;DHT22;12316;50.904;4.200;2023-11-21T11:28:15;13.00;99.90
24158;DHT22;12316;50.904;4.200;2023-11-21T11:33:58;13.00;99.90
24158;DHT22;12316;50.904;4.200;2023-11-21T11:39:00;12.90;99.90
24158;DHT22;12316;50.904;4.200;2023-11-21T11:41:30;12.90;99.90
24158;DHT22;12316;50.904;4.200;2023-11-21T11:43:58;12.90;99.90
24158;DHT22;12316;50.904;4.200;2023-11-21T11:46:43;12.90;99.90
24158;DHT22;12316;50.904;4.200;2023-11-21T11:49:27;13.00;99.90
24158;DHT22;12316;50.904;4.200;2023-11-21T11:55:18;13.10;99.90
24158;DHT22;12316;50.904;4.200;2023-11-21T11:57:46;12.90;99.90
24158;DHT22;12316;50.904;4.200;2023-11-21T12:00:33;13.00;99.90
24158;DHT22;12316;50.904;4.200;2023-11-21T12:03:03;12.70;99.90
24158;DHT22;12316;50.904;4.200;2023-11-21T12:05:33;12.50;99.90
24158;DHT22;12316;50.904;4.200;2023-11-21T12:08:07;12.40;99.90
24158;DHT22;12316;50.904;4.200;2023-11-21T12:10:37;12.20;99.90
24158;DHT22;12316;50.904;4.200;2023-11-21T12:13:10;12.00;99.90
24158;DHT22;12316;50.904;4.200;2023-11-21T12:15:38;11.90;99.90
24158;DHT22;12316;50.904;4.200;2023-11-21T12:18:04;11.80;99.90
24158;DHT22;12316;50.904;4.200;2023-11-21T12:20:30;11.80;99.90
24158;DHT22;12316;50.904;4.200;2023-11-21T12:22:58;11.80;99.90
24158;DHT22;12316;50.904;4.200;2023-11-21T12:25:29;11.80;99.90
24158;DHT22;12316;50.904;4.200;2023-11-21T12:27:57;11.90;99.90
24158;DHT22;12316;50.904;4.200;2023-11-21T12:30:26;11.90;99.90
24158;DHT22;12316;50.904;4.200;2023-11-21T12:32:56;11.90;99.90
24158;DHT22;12316;50.904;4.200;2023-11-21T12:35:27;12.00;99.90
24158;DHT22;12316;50.904;4.200;2023-11-21T12:37:54;11.90;99.90
24158;DHT22;12316;50.904;4.200;2023-11-21T12:40:20;12.00;99.90
24158;DHT22;12316;50.904;4.200;2023-11-21T12:42:52;12.10;99.90
24158;DHT22;12316;50.904;4.200;2023-11-21T12:45:19;12.10;99.90
24158;DHT22;12316;50.904;4.200;2023-11-21T12:47:46;12.10;99.90
24158;DHT22;12316;50.904;4.200;2023-11-21T12:50:13;12.10;99.90
24158;DHT22;12316;50.904;4.200;2023-11-21T12:52:45;12.10;99.90
24158;DHT22;12316;50.904;4.200;2023-11-21T12:55:15;12.00;99.90
24158;DHT22;12316;50.904;4.200;2023-11-21T12:57:45;12.10;99.90
24158;DHT22;12316;50.904;4.200;2023-11-21T13:00:12;12.00;99.90
24158;DHT22;12316;50.904;4.200;2023-11-21T13:02:50;12.10;99.90
24158;DHT22;12316;50.904;4.200;2023-11-21T13:05:27;12.10;99.90
24158;DHT22;12316;50.904;4.200;2023-11-21T13:07:54;12.20;99.90
24158;DHT22;12316;50.904;4.200;2023-11-21T13:10:24;12.10;99.90
24158;DHT22;12316;50.904;4.200;2023-11-21T13:12:52;12.10;99.90
24158;DHT22;12316;50.904;4.200;2023-11-21T13:15:20;12.20;99.90
24158;DHT22;12316;50.904;4.200;2023-11-21T13:17:45;12.20;99.90
24158;DHT22;12316;50.904;4.200;2023-11-21T13:20:12;12.20;99.90
24158;DHT22;12316;50.904;4.200;2023-11-21T13:22:55;12.30;99.90
24158;DHT22;12316;50.904;4.200;2023-11-21T13:25:25;12.30;99.90
24158;DHT22;12316;50.904;4.200;2023-11-21T13:27:54;12.40;99.90
24158;DHT22;12316;50.904;4.200;2023-11-21T13:30:20;12.40;99.90
24158;DHT22;12316;50.904;4.200;2023-11-21T13:32:52;12.40;99.90
24158;DHT22;12316;50.904;4.200;2023-11-21T13:35:18;12.30;99.90
24158;DHT22;12316;50.904;4.200;2023-11-21T13:37:50;12.40;99.90
24158;DHT22;12316;50.904;4.200;2023-11-21T13:40:22;12.20;99.90
24158;DHT22;12316;50.904;4.200;2023-11-21T13:42:51;12.20;99.90
24158;DHT22;12316;50.904;4.200;2023-11-21T13:45:23;12.10;99.90
24158;DHT22;12316;50.904;4.200;2023-11-21T13:47:51;12.10;99.90
24158;DHT22;12316;50.904;4.200;2023-11-21T13:50:18;12.00;99.90
24158;DHT22;12316;50.904;4.200;2023-11-21T13:52:49;12.00;99.90
24158;DHT22;12316;50.904;4.200;2023-11-21T13:55:16;11.90;99.90
24158;DHT22;12316;50.904;4.200;2023-11-21T13:57:42;11.90;99.90
24158;DHT22;12316;50.904;4.200;2023-11-21T14:00:15;12.10;99.90
24158;DHT22;12316;50.904;4.200;2023-11-21T14:02:59;12.00;99.90
24158;DHT22;12316;50.904;4.200;2023-11-21T14:05:29;11.90;99.90
24158;DHT22;12316;50.904;4.200;2023-11-21T14:07:57;12.00;99.90
24158;DHT22;12316;50.904;4.200;2023-11-21T14:10:29;11.90;99.90
24158;DHT22;12316;50.904;4.200;2023-11-21T14:13:02;11.90;99.90
24158;DHT22;12316;50.904;4.200;2023-11-21T14:15:29;11.90;99.90
24158;DHT22;12316;50.904;4.200;2023-11-21T14:17:54;12.00;99.90
24158;DHT22;12316;50.904;4.200;2023-11-21T14:20:20;12.10;99.90
24158;DHT22;12316;50.904;4.200;2023-11-21T14:22:46;12.20;99.90
24158;DHT22;12316;50.904;4.200;2023-11-21T14:25:12;12.20;99.90
24158;DHT22;12316;50.904;4.200;2023-11-21T14:27:39;12.20;99.90
24158;DHT22;12316;50.904;4.200;2023-11-21T14:30:05;12.00;99.90
24158;DHT22;12316;50.904;4.200;2023-11-21T14:32:32;12.10;99.90
24158;DHT22;12316;50.904;4.200;2023-11-21T14:34:57;12.10;99.90
24158;DHT22;12316;50.904;4.200;2023-11-21T14:37:23;12.00;99.90
24158;DHT22;12316;50.904;4.200;2023-11-21T14:39:49;12.00;99.90
24158;DHT22;12316;50.904;4.200;2023-11-21T14:42:15;12.00;99.90
24158;DHT22;12316;50.904;4.200;2023-11-21T14:44:41;11.90;99.90
24158;DHT22;12316;50.904;4.200;2023-11-21T14:47:08;11.90;99.90
24158;DHT22;12316;50.904;4.200;2023-11-21T14:49:43;11.80;99.90
24158;DHT22;12316;50.904;4.200;2023-11-21T14:52:22;11.90;99.90
24158;DHT22;12316;50.904;4.200;2023-11-21T14:55:03;11.80;99.90
24158;DHT22;12316;50.904;4.200;2023-11-21T14:57:47;11.80;99.90
24158;DHT22;12316;50.904;4.200;2023-11-21T15:00:20;11.80;99.90
24158;DHT22;12316;50.904;4.200;2023-11-21T15:03:10;11.80;99.90
24158;DHT22;12316;50.904;4.200;2023-11-21T15:05:40;11.90;99.90
24158;DHT22;12316;50.904;4.200;2023-11-21T15:08:06;11.70;99.90
24158;DHT22;12316;50.904;4.200;2023-11-21T15:10:51;11.80;99.90
24158;DHT22;12316;50.904;4.200;2023-11-21T15:13:21;11.80;99.90
24158;DHT22;12316;50.904;4.200;2023-11-21T15:15:52;11.80;99.90
24158;DHT22;12316;50.904;4.200;2023-11-21T15:18:20;11.90;99.90
24158;DHT22;12316;50.904;4.200;2023-11-21T15:20:46;11.90;99.90
24158;DHT22;12316;50.904;4.200;2023-11-21T15:23:12;11.90;99.90
24158;DHT22;12316;50.904;4.200;2023-11-21T15:25:42;11.90;99.90
24158;DHT22;12316;50.904;4.200;2023-11-21T15:28:07;11.80;99.90
24158;DHT22;12316;50.904;4.200;2023-11-21T15:30:33;11.80;99.90
24158;DHT22;12316;50.904;4.200;2023-11-21T15:32:59;11.70;99.90
24158;DHT22;12316;50.904;4.200;2023-11-21T15:35:24;11.70;99.90
24158;DHT22;12316;50.904;4.200;2023-11-21T15:37:52;11.60;99.90
24158;DHT22;12316;50.904;4.200;2023-11-21T15:40:18;11.60;99.90
24158;DHT22;12316;50.904;4.200;2023-11-21T15:42:44;11.40;99.90
24158;DHT22;12316;50.904;4.200;2023-11-21T15:45:11;11.50;99.90
24158;DHT22;12316;50.904;4.200;2023-11-21T15:47:37;11.50;99.90
24158;DHT22;12316;50.904;4.200;2023-11-21T15:50:03;11.60;99.90
24158;DHT22;12316;50.904;4.200;2023-11-21T15:52:33;11.50;99.90
24158;DHT22;12316;50.904;4.200;2023-11-21T15:54:59;11.70;99.90
24158;DHT22;12316;50.904;4.200;2023-11-21T15:57:25;11.70;99.90
24158;DHT22;12316;50.904;4.200;2023-11-21T15:59:50;11.60;99.90
24158;DHT22;12316;50.904;4.200;2023-11-21T16:02:16;11.50;99.90
24158;DHT22;12316;50.904;4.200;2023-11-21T16:04:42;11.40;99.90
24158;DHT22;12316;50.904;4.200;2023-11-21T16:07:10;11.40;99.90
24158;DHT22;12316;50.904;4.200;2023-11-21T16:09:36;11.40;99.90
24158;DHT22;12316;50.904;4.200;2023-11-21T16:12:05;11.40;99.90
24158;DHT22;12316;50.904;4.200;2023-11-21T16:14:35;11.40;99.90
24158;DHT22;12316;50.904;4.200;2023-11-21T16:17:07;11.40;99.90